Time;durP1;ratioP1;P1;durP2;ratioP2;P2;SDS_P1;SDS_P2;PMS_P1;PMS_P2;Temp;Humidity;BMP_temperature;BMP_pressure;BME280_temperature;BME280_humidity;BME280_pressure;Samples;Min_cycle;Max_cycle;Signal;HPM_P1;HPM_P2
2023/03/02 00:01:10;;;;;;;11.38;3.63;;;5.50;84.60;;;;;;5077494;28;20025;-76
2023/03/02 00:03:37;;;;;;;6.88;3.70;;;5.30;85.10;;;;;;5073679;28;20063;-76
2023/03/02 00:06:03;;;;;;;40.65;25.63;;;5.40;85.30;;;;;;5089528;28;20622;-76
2023/03/02 00:08:30;;;;;;;32.92;19.95;;;5.30;85.30;;;;;;5076988;28;20650;-77
2023/03/02 00:10:57;;;;;;;29.92;17.42;;;5.10;85.00;;;;;;5087583;28;20112;-77
2023/03/02 00:13:23;;;;;;;20.65;8.52;;;5.10;85.90;;;;;;5079083;28;20459;-78
2023/03/02 00:15:49;;;;;;;16.80;9.60;;;5.00;86.50;;;;;;5085995;28;20031;-76
2023/03/02 00:18:14;;;;;;;21.60;12.38;;;5.10;86.50;;;;;;5082122;28;20024;-76
2023/03/02 00:20:40;;;;;;;10.85;5.18;;;5.00;86.90;;;;;;5083862;28;20036;-78
2023/03/02 00:23:06;;;;;;;42.67;24.95;;;5.10;87.20;;;;;;5081448;28;20028;-76
2023/03/02 00:25:31;;;;;;;35.78;23.10;;;5.10;86.90;;;;;;5080681;28;20032;-77
2023/03/02 00:27:57;;;;;;;15.60;9.48;;;5.00;86.90;;;;;;5079150;28;20070;-76
2023/03/02 00:30:22;;;;;;;46.08;28.40;;;5.00;87.20;;;;;;5084066;28;20055;-76
2023/03/02 00:32:48;;;;;;;17.35;9.95;;;4.90;87.80;;;;;;5077005;28;20029;-77
2023/03/02 00:35:14;;;;;;;19.75;10.07;;;4.90;88.00;;;;;;5089306;28;20391;-78
2023/03/02 00:37:40;;;;;;;16.58;6.88;;;4.90;88.00;;;;;;5095425;28;20027;-76
2023/03/02 00:40:08;;;;;;;18.15;8.68;;;4.80;88.50;;;;;;5084240;28;20027;-76
2023/03/02 00:42:35;;;;;;;12.52;7.07;;;4.80;88.80;;;;;;5096505;28;20023;-75
2023/03/02 00:45:03;;;;;;;59.03;36.88;;;4.90;88.80;;;;;;5072884;28;20478;-77
2023/03/02 00:47:31;;;;;;;43.17;26.25;;;4.80;89.30;;;;;;5095937;28;20028;-77
2023/03/02 00:49:57;;;;;;;16.42;8.73;;;4.70;89.60;;;;;;5091806;28;20031;-76
2023/03/02 00:52:22;;;;;;;27.40;14.63;;;4.80;89.50;;;;;;5075709;28;20028;-78
2023/03/02 00:54:48;;;;;;;27.90;15.15;;;4.70;89.50;;;;;;5076244;28;20627;-76
2023/03/02 00:57:14;;;;;;;23.52;13.65;;;4.70;89.40;;;;;;5084259;28;20082;-75
2023/03/02 00:59:39;;;;;;;47.17;26.45;;;4.80;89.40;;;;;;5081772;28;20074;-76
2023/03/02 01:02:06;;;;;;;37.15;23.50;;;4.90;89.50;;;;;;5082292;28;20035;-77
2023/03/02 01:04:41;;;;;;;39.38;23.02;;;4.80;89.50;;;;;;5076936;28;20043;-77
2023/03/02 01:07:11;;;;;;;43.60;24.30;;;4.70;89.80;;;;;;5089367;28;20071;-75
2023/03/02 01:09:37;;;;;;;;;;;4.80;89.80;;;;;;5085594;28;20028;-76
2023/03/02 01:12:04;;;;;;;40.25;22.48;;;4.80;89.90;;;;;;5087832;28;19962;-77
2023/03/02 01:14:31;;;;;;;58.78;33.22;;;4.70;89.80;;;;;;5093905;28;20034;-77
2023/03/02 01:16:56;;;;;;;48.38;25.33;;;4.80;90.10;;;;;;5085267;28;20111;-79
2023/03/02 01:19:22;;;;;;;58.70;36.00;;;4.70;90.20;;;;;;5093008;28;20418;-77
2023/03/02 01:21:48;;;;;;;51.22;27.80;;;4.60;90.50;;;;;;5085647;28;20099;-77
2023/03/02 01:24:14;;;;;;;59.45;34.55;;;4.60;90.50;;;;;;5095075;28;20107;-77
2023/03/02 01:26:40;;;;;;;61.50;37.42;;;4.60;90.50;;;;;;5083830;28;20039;-77
2023/03/02 01:29:05;;;;;;;39.65;24.13;;;4.60;90.50;;;;;;5096266;28;20497;-76
2023/03/02 01:31:34;;;;;;;67.53;39.42;;;4.60;90.50;;;;;;5081226;28;20021;-77
2023/03/02 01:33:59;;;;;;;48.83;27.20;;;4.60;90.60;;;;;;5074536;28;20111;-77
2023/03/02 01:36:25;;;;;;;40.97;24.70;;;4.50;90.70;;;;;;5087003;28;20024;-77
2023/03/02 01:38:52;;;;;;;58.33;33.30;;;4.50;91.10;;;;;;5076082;28;20043;-77
2023/03/02 01:41:18;;;;;;;45.00;25.35;;;4.50;90.70;;;;;;5082153;28;20020;-77
2023/03/02 01:43:44;;;;;;;47.40;27.02;;;4.50;90.70;;;;;;5092154;28;20494;-78
2023/03/02 01:46:20;;;;;;;57.80;33.03;;;4.60;90.60;;;;;;5087485;28;20504;-77
2023/03/02 01:48:52;;;;;;;41.67;25.73;;;4.40;90.80;;;;;;5074856;28;20111;-78
2023/03/02 01:51:21;;;;;;;39.60;20.08;;;4.40;90.80;;;;;;5074871;28;20016;-77
2023/03/02 01:53:52;;;;;;;56.63;32.33;;;4.40;90.90;;;;;;5086326;28;20016;-76
2023/03/02 01:56:23;;;;;;;44.05;23.50;;;4.30;91.10;;;;;;5090786;28;20039;-76
2023/03/02 01:58:53;;;;;;;44.38;25.77;;;4.40;91.00;;;;;;5077704;28;20488;-76
2023/03/02 02:01:19;;;;;;;51.17;27.07;;;4.40;91.00;;;;;;5082750;28;20482;-77
2023/03/02 02:03:49;;;;;;;45.50;25.30;;;4.30;91.10;;;;;;5085746;28;20457;-78
2023/03/02 02:06:17;;;;;;;41.50;23.60;;;4.40;91.10;;;;;;5086891;28;20523;-78
2023/03/02 02:08:45;;;;;;;31.52;18.23;;;4.30;91.10;;;;;;5081974;28;20266;-77
2023/03/02 02:11:11;;;;;;;23.80;10.98;;;4.40;91.10;;;;;;5074488;28;20013;-76
2023/03/02 02:13:37;;;;;;;30.73;16.70;;;4.40;91.10;;;;;;5071361;28;20103;-78
2023/03/02 02:16:04;;;;;;;51.05;31.20;;;4.40;91.10;;;;;;5071677;28;20115;-78
2023/03/02 02:18:30;;;;;;;21.15;11.77;;;4.40;91.00;;;;;;5081381;28;20107;-78
2023/03/02 02:20:56;;;;;;;30.65;16.85;;;4.50;91.00;;;;;;5070248;28;20187;-76
2023/03/02 02:23:27;;;;;;;47.45;27.20;;;4.50;90.90;;;;;;5077623;28;20586;-77
2023/03/02 02:25:58;;;;;;;17.00;8.88;;;4.50;90.80;;;;;;5089494;28;20079;-76
2023/03/02 02:28:48;;;;;;;28.77;15.88;;;4.50;91.00;;;;;;5079351;28;20025;-77
2023/03/02 02:31:21;;;;;;;27.02;15.18;;;4.60;90.80;;;;;;5092521;28;20024;-77
2023/03/02 02:33:52;;;;;;;20.73;11.20;;;4.70;90.80;;;;;;5079071;28;20150;-76
2023/03/02 02:36:25;;;;;;;42.00;23.70;;;4.60;90.90;;;;;;5091832;28;20024;-76
2023/03/02 02:38:54;;;;;;;36.05;21.52;;;4.60;90.90;;;;;;5082135;28;20035;-76
2023/03/02 02:41:24;;;;;;;36.90;21.43;;;4.50;90.90;;;;;;5071497;28;20024;-77
2023/03/02 02:43:50;;;;;;;16.60;9.13;;;4.50;90.90;;;;;;5084010;28;20028;-77
2023/03/02 02:46:16;;;;;;;13.10;7.10;;;4.50;91.20;;;;;;5072392;28;20037;-76
2023/03/02 02:48:42;;;;;;;19.80;10.68;;;4.60;91.40;;;;;;5079500;28;20027;-77
2023/03/02 02:51:12;;;;;;;30.17;17.92;;;4.60;91.30;;;;;;5091727;28;20092;-77
2023/03/02 02:53:49;;;;;;;19.85;10.90;;;4.60;91.20;;;;;;5083494;28;20017;-78
2023/03/02 02:56:16;;;;;;;36.92;20.95;;;4.60;91.10;;;;;;5088374;28;20090;-78
2023/03/02 02:58:54;;;;;;;30.10;12.77;;;4.50;91.00;;;;;;5080657;28;20016;-77
2023/03/02 03:01:24;;;;;;;47.95;24.83;;;4.50;91.40;;;;;;5086222;28;20445;-77
2023/03/02 03:03:57;;;;;;;47.65;27.50;;;4.30;91.20;;;;;;5080679;28;20054;-77
2023/03/02 03:06:40;;;;;;;35.80;20.23;;;4.30;91.40;;;;;;5075188;28;20082;-77
2023/03/02 03:09:07;;;;;;;26.92;13.63;;;4.30;91.30;;;;;;5079285;28;20101;-77
2023/03/02 03:11:36;;;;;;;20.08;10.52;;;4.40;91.70;;;;;;5074313;28;20040;-77
2023/03/02 03:14:10;;;;;;;55.27;29.70;;;4.40;91.80;;;;;;5082061;28;20473;-78
2023/03/02 03:16:38;;;;;;;12.95;6.53;;;4.40;91.60;;;;;;5085692;28;20043;-76
2023/03/02 03:19:22;;;;;;;23.92;12.23;;;4.40;92.00;;;;;;5085309;28;20541;-76
2023/03/02 03:21:51;;;;;;;45.08;24.38;;;4.20;92.10;;;;;;5085084;28;20024;-77
2023/03/02 03:24:17;;;;;;;46.75;27.63;;;4.20;91.90;;;;;;5081945;28;20412;-77
2023/03/02 03:26:43;;;;;;;46.65;27.25;;;4.20;92.10;;;;;;5068870;28;20041;-77
2023/03/02 03:29:10;;;;;;;34.30;20.40;;;4.20;92.20;;;;;;5074083;28;20035;-76
2023/03/02 03:31:35;;;;;;;28.48;14.73;;;4.20;92.20;;;;;;5081276;28;20390;-76
2023/03/02 03:34:01;;;;;;;39.20;20.75;;;4.20;92.30;;;;;;5087010;28;20033;-77
2023/03/02 03:36:29;;;;;;;21.50;11.55;;;4.10;92.20;;;;;;5088078;28;20032;-76
2023/03/02 03:38:56;;;;;;;18.17;9.93;;;4.00;92.40;;;;;;5090928;28;20032;-77
2023/03/02 03:41:22;;;;;;;45.25;27.63;;;4.10;92.80;;;;;;5073432;28;21401;-76
2023/03/02 03:43:48;;;;;;;23.00;12.50;;;4.00;92.60;;;;;;5070222;28;20390;-77
2023/03/02 03:46:14;;;;;;;23.27;12.85;;;4.00;92.70;;;;;;5082480;28;20036;-78
2023/03/02 03:48:40;;;;;;;22.52;10.80;;;4.00;92.90;;;;;;5077791;28;20035;-76
2023/03/02 03:51:05;;;;;;;44.65;23.92;;;3.90;93.00;;;;;;5076849;28;20109;-76
2023/03/02 03:53:32;;;;;;;44.90;23.35;;;3.90;92.90;;;;;;5090197;28;20024;-78
2023/03/02 03:55:59;;;;;;;31.90;17.85;;;3.90;92.90;;;;;;5086442;28;20042;-77
2023/03/02 03:58:25;;;;;;;23.02;11.77;;;3.80;92.90;;;;;;5071867;28;20017;-77
2023/03/02 04:00:52;;;;;;;12.38;6.80;;;3.80;93.20;;;;;;5080877;28;20036;-76
2023/03/02 04:03:19;;;;;;;24.75;13.90;;;3.80;93.50;;;;;;5085517;28;20769;-77
2023/03/02 04:05:45;;;;;;;41.15;22.05;;;3.80;93.50;;;;;;5085049;28;20035;-76
2023/03/02 04:08:11;;;;;;;16.23;8.50;;;3.90;93.60;;;;;;5075896;28;20064;-77
2023/03/02 04:10:37;;;;;;;50.55;26.92;;;3.90;93.70;;;;;;5072688;28;20048;-78
2023/03/02 04:13:03;;;;;;;22.90;11.25;;;3.90;93.60;;;;;;5086982;28;20115;-77
2023/03/02 04:15:29;;;;;;;20.35;10.18;;;4.00;93.90;;;;;;5085544;28;20032;-76
2023/03/02 04:17:54;;;;;;;45.60;25.15;;;3.90;93.40;;;;;;5080401;28;20024;-78
2023/03/02 04:20:21;;;;;;;24.20;12.15;;;3.90;93.30;;;;;;5070649;28;20032;-77
2023/03/02 04:22:50;;;;;;;21.05;10.68;;;3.90;93.40;;;;;;5086373;28;20028;-77
2023/03/02 04:25:20;;;;;;;24.73;12.65;;;3.90;93.40;;;;;;5088628;28;20016;-76
2023/03/02 04:27:50;;;;;;;37.40;18.13;;;3.90;93.60;;;;;;5080449;28;20086;-77
2023/03/02 04:30:19;;;;;;;41.50;21.95;;;3.90;93.70;;;;;;5081096;28;20040;-75
2023/03/02 04:32:45;;;;;;;38.42;21.05;;;3.80;93.60;;;;;;5076208;28;20028;-77
2023/03/02 04:35:12;;;;;;;31.20;16.98;;;3.70;93.50;;;;;;5090254;28;20027;-77
2023/03/02 04:37:38;;;;;;;27.95;14.25;;;3.70;93.70;;;;;;5082020;28;20028;-77
2023/03/02 04:40:04;;;;;;;56.38;29.17;;;3.60;93.70;;;;;;5069701;28;20497;-76
2023/03/02 04:42:30;;;;;;;26.52;13.02;;;3.60;93.70;;;;;;5075411;28;20025;-77
2023/03/02 04:44:55;;;;;;;18.90;9.60;;;3.50;93.80;;;;;;5073018;28;21070;-77
2023/03/02 04:47:21;;;;;;;44.85;23.85;;;3.60;94.10;;;;;;5076616;28;20384;-76
2023/03/02 04:49:49;;;;;;;55.85;29.77;;;3.70;94.10;;;;;;5077632;28;20021;-75
2023/03/02 04:52:14;;;;;;;24.77;11.73;;;3.60;93.80;;;;;;5077637;28;20022;-78
2023/03/02 04:54:40;;;;;;;26.23;12.95;;;3.70;93.90;;;;;;5074895;28;20020;-77
2023/03/02 04:57:07;;;;;;;19.67;10.13;;;3.70;94.00;;;;;;5078265;28;20035;-76
2023/03/02 04:59:33;;;;;;;13.10;6.03;;;3.80;94.10;;;;;;5076680;28;21105;-77
2023/03/02 05:02:00;;;;;;;29.92;11.80;;;3.80;94.40;;;;;;5077024;28;20153;-77
2023/03/02 05:04:27;;;;;;;31.55;15.40;;;3.80;94.20;;;;;;5076541;28;20027;-78
2023/03/02 05:06:52;;;;;;;32.88;16.27;;;3.80;94.30;;;;;;5077872;28;20261;-77
2023/03/02 05:09:18;;;;;;;29.45;13.95;;;3.80;93.80;;;;;;5082064;28;20360;-77
2023/03/02 05:11:44;;;;;;;44.05;23.10;;;3.80;94.00;;;;;;5071614;28;20044;-77
2023/03/02 05:14:11;;;;;;;42.75;22.30;;;3.70;93.80;;;;;;5081636;28;20025;-77
2023/03/02 05:16:38;;;;;;;51.42;28.98;;;3.60;93.20;;;;;;5071197;28;20034;-76
2023/03/02 05:19:06;;;;;;;37.60;19.52;;;3.60;93.20;;;;;;5079115;28;20012;-77
2023/03/02 05:21:32;;;;;;;42.10;21.05;;;3.50;93.30;;;;;;5093184;28;20035;-78
2023/03/02 05:23:58;;;;;;;32.30;16.55;;;3.50;93.30;;;;;;5081780;28;20025;-77
2023/03/02 05:26:24;;;;;;;34.00;18.50;;;3.50;93.80;;;;;;5091655;28;20040;-77
2023/03/02 05:28:49;;;;;;;49.33;26.42;;;3.60;94.10;;;;;;5090312;28;20060;-78
2023/03/02 05:31:22;;;;;;;26.77;13.77;;;3.60;93.80;;;;;;5077386;28;20031;-78
2023/03/02 05:33:48;;;;;;;48.60;25.95;;;3.60;94.20;;;;;;5076890;28;20071;-77
2023/03/02 05:36:14;;;;;;;35.45;18.15;;;3.60;94.30;;;;;;5086762;28;20067;-76
2023/03/02 05:38:40;;;;;;;45.42;24.00;;;3.40;94.00;;;;;;5079376;28;20452;-77
2023/03/02 05:41:05;;;;;;;28.63;15.05;;;3.50;94.20;;;;;;5078389;28;20119;-79
2023/03/02 05:43:31;;;;;;;48.97;27.25;;;3.60;94.70;;;;;;5073781;28;20024;-77
2023/03/02 05:45:59;;;;;;;52.85;28.27;;;3.50;94.10;;;;;;5081411;28;20131;-77
2023/03/02 05:48:29;;;;;;;37.22;20.45;;;3.40;94.00;;;;;;5087336;28;20052;-77
2023/03/02 05:50:55;;;;;;;42.75;23.25;;;3.40;94.40;;;;;;5075215;28;20025;-77
2023/03/02 05:53:21;;;;;;;45.95;22.83;;;3.30;93.90;;;;;;5071765;28;20047;-76
2023/03/02 05:55:47;;;;;;;46.75;23.13;;;3.30;94.40;;;;;;5086667;28;20649;-77
2023/03/02 05:58:16;;;;;;;32.45;14.30;;;3.30;94.40;;;;;;5087449;28;20498;-77
2023/03/02 06:00:42;;;;;;;52.38;27.83;;;3.20;94.50;;;;;;5081454;28;20113;-77
2023/03/02 06:03:08;;;;;;;26.02;12.50;;;3.30;94.70;;;;;;5080441;28;20033;-77
2023/03/02 06:05:35;;;;;;;45.47;23.98;;;3.30;94.90;;;;;;5084762;28;20035;-77
2023/03/02 06:08:00;;;;;;;50.53;26.02;;;3.30;95.00;;;;;;5072179;28;20430;-78
2023/03/02 06:10:26;;;;;;;41.90;20.48;;;3.30;94.50;;;;;;5085734;28;20031;-77
2023/03/02 06:12:52;;;;;;;57.00;28.65;;;3.30;94.70;;;;;;5091896;28;20037;-76
2023/03/02 06:15:18;;;;;;;26.65;12.38;;;3.20;94.10;;;;;;5093887;28;20371;-78
2023/03/02 06:17:44;;;;;;;29.02;13.85;;;3.20;94.80;;;;;;5080091;28;20825;-77
2023/03/02 06:20:11;;;;;;;38.45;18.30;;;3.30;95.50;;;;;;5081891;28;20024;-78
2023/03/02 06:22:40;;;;;;;36.95;17.10;;;3.40;95.50;;;;;;5078458;28;20031;-80
2023/03/02 06:25:11;;;;;;;45.90;21.85;;;3.40;95.00;;;;;;5075055;28;20051;-79
2023/03/02 06:27:38;;;;;;;55.22;24.92;;;3.50;95.60;;;;;;5087327;28;20044;-79
2023/03/02 06:30:05;;;;;;;38.33;19.55;;;3.60;95.70;;;;;;5086465;28;20044;-78
2023/03/02 06:32:33;;;;;;;50.38;27.83;;;3.70;95.30;;;;;;5086910;28;20036;-79
2023/03/02 06:35:03;;;;;;;49.42;27.85;;;3.70;94.30;;;;;;5088521;28;20029;-78
2023/03/02 06:37:29;;;;;;;47.35;25.08;;;3.80;94.20;;;;;;5079041;28;20028;-77
2023/03/02 06:39:56;;;;;;;50.60;28.33;;;3.80;93.50;;;;;;5085679;28;20028;-78
2023/03/02 06:42:22;;;;;;;46.22;23.75;;;3.70;92.60;;;;;;5080026;28;20051;-80
2023/03/02 06:44:50;;;;;;;34.05;17.88;;;3.90;92.90;;;;;;5076794;28;20048;-80
2023/03/02 06:47:17;;;;;;;51.72;28.55;;;4.10;93.40;;;;;;5085269;28;20123;-78
2023/03/02 06:49:43;;;;;;;34.63;18.80;;;4.10;92.20;;;;;;5081718;28;20027;-78
2023/03/02 06:52:09;;;;;;;39.95;21.33;;;4.30;92.70;;;;;;5078602;28;20039;-78
2023/03/02 06:54:36;;;;;;;48.20;26.00;;;4.30;92.60;;;;;;5080656;28;20028;-78
2023/03/02 06:57:02;;;;;;;31.45;15.75;;;4.40;91.70;;;;;;5078973;28;20107;-77
2023/03/02 06:59:28;;;;;;;33.72;19.45;;;4.50;91.50;;;;;;5078963;28;20082;-77
2023/03/02 07:01:53;;;;;;;42.13;23.15;;;4.60;92.00;;;;;;5076658;28;20024;-77
2023/03/02 07:04:20;;;;;;;33.90;15.52;;;4.60;91.40;;;;;;5079693;28;20067;-78
2023/03/02 07:06:46;;;;;;;37.33;21.33;;;4.90;92.20;;;;;;5074728;28;20098;-76
2023/03/02 07:09:13;;;;;;;33.75;17.85;;;4.80;91.70;;;;;;5086339;28;20147;-77
2023/03/02 07:11:39;;;;;;;38.60;21.27;;;4.90;92.00;;;;;;5078226;28;20076;-76
2023/03/02 07:14:05;;;;;;;43.00;22.13;;;5.00;91.70;;;;;;5086979;28;20020;-77
2023/03/02 07:16:32;;;;;;;32.95;16.17;;;5.10;91.50;;;;;;5073321;28;20044;-78
2023/03/02 07:18:58;;;;;;;32.80;17.40;;;5.10;91.90;;;;;;5087178;28;20040;-77
2023/03/02 07:21:23;;;;;;;40.58;23.00;;;5.10;91.70;;;;;;5076753;28;20040;-77
2023/03/02 07:23:49;;;;;;;38.17;19.10;;;5.10;90.80;;;;;;5075109;28;20013;-77
2023/03/02 07:26:15;;;;;;;36.95;19.92;;;5.10;91.80;;;;;;5081264;28;20693;-78
2023/03/02 07:28:42;;;;;;;30.38;16.70;;;5.20;91.30;;;;;;5078216;28;20116;-77
2023/03/02 07:31:08;;;;;;;31.52;17.38;;;5.20;91.50;;;;;;5078583;28;20426;-78
2023/03/02 07:33:35;;;;;;;33.05;17.27;;;5.40;92.20;;;;;;5078356;28;20013;-78
2023/03/02 07:36:01;;;;;;;29.15;16.48;;;5.50;92.10;;;;;;5077675;28;20021;-77
2023/03/02 07:38:27;;;;;;;36.05;18.83;;;5.60;91.90;;;;;;5079671;28;20512;-76
2023/03/02 07:40:55;;;;;;;40.00;22.23;;;5.80;91.60;;;;;;5078897;28;20693;-77
2023/03/02 07:43:22;;;;;;;32.92;19.05;;;5.80;90.10;;;;;;5076901;28;20035;-77
2023/03/02 07:45:48;;;;;;;36.90;19.60;;;5.90;90.30;;;;;;5080220;28;20024;-78
2023/03/02 07:48:14;;;;;;;31.95;15.80;;;5.90;90.50;;;;;;5077433;28;20032;-77
2023/03/02 07:50:39;;;;;;;36.83;20.17;;;6.00;91.60;;;;;;5076363;28;20034;-77
2023/03/02 07:53:05;;;;;;;29.55;15.13;;;6.10;90.90;;;;;;5079950;28;20020;-79
2023/03/02 07:55:31;;;;;;;28.02;15.13;;;6.20;91.80;;;;;;5073661;28;20028;-78
2023/03/02 07:57:56;;;;;;;29.35;15.23;;;6.40;92.10;;;;;;5070357;28;20047;-77
2023/03/02 08:00:22;;;;;;;33.50;17.83;;;6.50;91.40;;;;;;5071730;28;20071;-76
2023/03/02 08:02:48;;;;;;;32.58;18.45;;;6.60;91.50;;;;;;5074920;28;20066;-77
2023/03/02 08:05:14;;;;;;;37.95;21.10;;;6.60;91.00;;;;;;5086842;28;20024;-76
2023/03/02 08:07:41;;;;;;;35.83;19.73;;;6.60;90.10;;;;;;5087133;28;20036;-76
2023/03/02 08:10:07;;;;;;;37.05;18.92;;;6.70;91.50;;;;;;5080318;28;20060;-79
2023/03/02 08:12:33;;;;;;;40.97;23.00;;;6.70;90.10;;;;;;5085017;28;20032;-77
2023/03/02 08:14:58;;;;;;;37.53;20.60;;;6.80;87.90;;;;;;5078849;28;20028;-78
2023/03/02 08:17:25;;;;;;;31.20;16.15;;;6.90;88.60;;;;;;5077219;28;20032;-77
2023/03/02 08:19:51;;;;;;;38.65;20.67;;;7.00;90.50;;;;;;5073804;28;20017;-77
2023/03/02 08:22:16;;;;;;;28.50;16.42;;;7.10;88.70;;;;;;5074564;28;20036;-78
2023/03/02 08:24:42;;;;;;;36.72;18.42;;;7.30;89.90;;;;;;5078707;28;20016;-78
2023/03/02 08:27:12;;;;;;;28.67;15.73;;;7.40;90.20;;;;;;5088849;28;20505;-78
2023/03/02 08:29:38;;;;;;;31.75;16.45;;;7.50;90.90;;;;;;5071585;28;20081;-77
2023/03/02 08:32:04;;;;;;;27.70;15.15;;;7.50;88.50;;;;;;5080107;28;20024;-78
2023/03/02 08:34:29;;;;;;;23.65;13.27;;;7.60;90.20;;;;;;5073635;28;20040;-78
2023/03/02 08:36:55;;;;;;;29.65;15.40;;;7.60;89.70;;;;;;5079416;28;20051;-76
2023/03/02 08:39:22;;;;;;;25.10;13.93;;;7.70;90.20;;;;;;5075669;28;20518;-76
2023/03/02 08:41:57;;;;;;;30.50;18.35;;;7.80;90.60;;;;;;5075264;28;20025;-76
2023/03/02 08:44:29;;;;;;;32.08;17.58;;;8.00;89.00;;;;;;5074917;28;20048;-76
2023/03/02 08:46:55;;;;;;;32.67;18.65;;;8.10;84.80;;;;;;5075198;28;20082;-75
2023/03/02 08:49:20;;;;;;;29.40;15.25;;;8.00;80.60;;;;;;5078294;28;20395;-76
2023/03/02 08:51:52;;;;;;;36.10;18.23;;;8.10;85.70;;;;;;5077265;28;20012;-77
2023/03/02 08:54:19;;;;;;;25.33;14.40;;;8.10;83.70;;;;;;5072821;28;20061;-76
2023/03/02 08:56:45;;;;;;;29.98;18.15;;;8.20;88.10;;;;;;5075896;28;20512;-75
2023/03/02 08:59:12;;;;;;;38.55;19.90;;;8.20;84.00;;;;;;5083615;28;20032;-76
2023/03/02 09:01:38;;;;;;;23.92;12.80;;;8.30;83.00;;;;;;5080137;28;20081;-78
2023/03/02 09:04:09;;;;;;;30.02;16.00;;;8.50;91.30;;;;;;5089385;28;20035;-75
2023/03/02 09:06:38;;;;;;;31.55;18.08;;;8.70;90.80;;;;;;5085251;28;20070;-75
2023/03/02 09:09:05;;;;;;;27.52;15.18;;;8.80;89.30;;;;;;5093183;28;20031;-75
2023/03/02 09:11:31;;;;;;;21.73;12.90;;;8.80;89.70;;;;;;5082420;28;20020;-76
2023/03/02 09:13:56;;;;;;;25.45;12.23;;;9.00;91.30;;;;;;5092235;28;20546;-74
2023/03/02 09:16:24;;;;;;;26.45;15.32;;;9.10;91.40;;;;;;5083030;28;20020;-76
2023/03/02 09:18:50;;;;;;;31.05;18.23;;;9.00;87.50;;;;;;5092888;28;20020;-74
2023/03/02 09:21:16;;;;;;;27.20;15.77;;;9.00;80.30;;;;;;5081946;28;20031;-75
2023/03/02 09:23:41;;;;;;;24.48;12.02;;;9.10;90.70;;;;;;5086297;28;20445;-75
2023/03/02 09:26:07;;;;;;;26.50;16.80;;;9.20;91.80;;;;;;5086365;28;20551;-76
2023/03/02 09:28:34;;;;;;;30.27;16.65;;;9.20;85.90;;;;;;5080900;28;20060;-74
2023/03/02 09:31:02;;;;;;;26.40;14.38;;;9.30;82.60;;;;;;5088615;28;20029;-78
2023/03/02 09:33:29;;;;;;;23.13;13.93;;;9.30;86.10;;;;;;5092849;28;20134;-76
2023/03/02 09:35:55;;;;;;;30.60;17.70;;;9.40;90.50;;;;;;5085440;28;20029;-76
2023/03/02 09:38:22;;;;;;;28.92;15.73;;;9.60;87.40;;;;;;5086995;28;20024;-75
2023/03/02 09:41:19;;;;;;;24.08;11.80;;;9.60;88.70;;;;;;5076188;28;20065;-76
2023/03/02 09:43:47;;;;;;;31.48;16.13;;;9.80;91.40;;;;;;5082690;28;20036;-76
2023/03/02 09:46:15;;;;;;;25.40;14.68;;;10.00;87.40;;;;;;5074642;28;20528;-78
2023/03/02 09:48:56;;;;;;;26.35;14.68;;;10.20;90.70;;;;;;5076835;28;20086;-76
2023/03/02 09:51:38;;;;;;;25.10;14.40;;;10.20;90.20;;;;;;5079429;28;20024;-76
2023/03/02 09:54:10;;;;;;;25.65;13.02;;;10.20;90.80;;;;;;5079065;28;20025;-76
2023/03/02 09:56:42;;;;;;;29.95;15.80;;;10.30;90.80;;;;;;5085732;28;20043;-76
2023/03/02 09:59:16;;;;;;;23.83;15.15;;;10.40;86.90;;;;;;5078859;28;20028;-76
2023/03/02 10:01:55;;;;;;;23.60;13.30;;;10.50;90.60;;;;;;5082985;28;20370;-74
2023/03/02 10:04:37;;;;;;;25.10;14.20;;;10.70;90.60;;;;;;5084406;28;20086;-76
2023/03/02 10:07:15;;;;;;;23.55;11.98;;;10.70;90.10;;;;;;5082466;28;20044;-75
2023/03/02 10:09:42;;;;;;;27.63;16.85;;;10.80;90.30;;;;;;5079702;28;20025;-76
2023/03/02 10:12:34;;;;;;;27.13;16.02;;;10.90;84.00;;;;;;5081001;28;20035;-74
2023/03/02 10:15:09;;;;;;;24.90;15.13;;;10.90;79.50;;;;;;5079873;28;20916;-76
2023/03/02 10:18:23;;;;;;;25.73;15.27;;;11.00;84.40;;;;;;5077873;28;20048;-75
2023/03/02 10:21:20;;;;;;;28.58;16.23;;;11.10;87.00;;;;;;5018953;28;20046;-75
2023/03/02 10:23:53;;;;;;;24.48;11.20;;;11.20;84.00;;;;;;5084319;28;20608;-77
2023/03/02 10:26:44;;;;;;;17.80;10.98;;;11.30;89.20;;;;;;5081324;28;20567;-76
2023/03/02 10:29:28;;;;;;;18.52;11.38;;;11.40;90.90;;;;;;5077223;28;20024;-76
2023/03/02 10:32:08;;;;;;;21.58;12.30;;;11.60;88.60;;;;;;5084495;28;20083;-77
2023/03/02 10:34:36;;;;;;;25.50;13.43;;;11.70;79.00;;;;;;5077239;28;20028;-75
2023/03/02 10:37:08;;;;;;;20.08;10.02;;;11.90;84.10;;;;;;5081174;28;20024;-76
2023/03/02 10:39:33;;;;;;;17.67;10.68;;;12.10;84.30;;;;;;5081641;28;20421;-77
2023/03/02 10:42:03;;;;;;;24.85;15.63;;;12.30;88.00;;;;;;5083913;28;20028;-75
2023/03/02 10:44:36;;;;;;;22.67;14.82;;;12.50;76.60;;;;;;5083031;28;20050;-75
2023/03/02 10:47:03;;;;;;;21.58;14.57;;;12.50;73.60;;;;;;5074143;28;20138;-75
2023/03/02 10:49:40;;;;;;;17.15;9.85;;;12.40;67.10;;;;;;5080430;28;20525;-76
2023/03/02 10:52:14;;;;;;;20.27;13.32;;;12.40;79.00;;;;;;5083541;28;20140;-75
2023/03/02 10:54:40;;;;;;;15.95;8.23;;;12.50;70.40;;;;;;5083693;28;20020;-76
2023/03/02 10:57:27;;;;;;;20.25;13.13;;;12.50;81.20;;;;;;5082150;28;20330;-76
2023/03/02 11:00:18;;;;;;;20.10;11.85;;;12.80;85.90;;;;;;5083210;28;20058;-76
2023/03/02 11:02:54;;;;;;;21.10;12.32;;;12.90;83.00;;;;;;5071337;28;20130;-76
2023/03/02 11:05:26;;;;;;;15.52;9.43;;;12.90;77.30;;;;;;5080010;28;20688;-75
2023/03/02 11:07:57;;;;;;;17.15;10.13;;;13.00;84.00;;;;;;5082110;28;20076;-75
2023/03/02 11:10:27;;;;;;;20.23;11.35;;;13.00;74.30;;;;;;5081614;28;20141;-75
2023/03/02 11:12:54;;;;;;;17.48;10.98;;;13.00;72.30;;;;;;5083533;28;20715;-76
2023/03/02 11:15:38;;;;;;;16.25;9.80;;;13.00;80.20;;;;;;5085034;28;21610;-75
2023/03/02 11:18:24;;;;;;;16.05;9.57;;;13.20;84.10;;;;;;5081875;28;20079;-75
2023/03/02 11:20:55;;;;;;;17.10;10.90;;;13.40;87.70;;;;;;5077785;28;20032;-75
2023/03/02 11:23:42;;;;;;;14.98;8.40;;;13.50;79.00;;;;;;5081626;28;20016;-76
2023/03/02 11:26:29;;;;;;;14.25;8.23;;;13.60;80.80;;;;;;5077058;28;20029;-77
2023/03/02 11:29:04;;;;;;;21.75;13.40;;;13.80;90.50;;;;;;5081267;28;20726;-76
2023/03/02 11:31:52;;;;;;;22.42;11.88;;;13.90;71.70;;;;;;5081179;28;20024;-75
2023/03/02 11:34:34;;;;;;;16.92;10.93;;;14.10;74.50;;;;;;5085013;28;20028;-74
2023/03/02 11:37:25;;;;;;;16.55;9.60;;;14.10;79.50;;;;;;5080213;28;20040;-75
2023/03/02 11:40:05;;;;;;;14.68;9.25;;;14.10;83.30;;;;;;5081434;28;20027;-76
2023/03/02 11:42:38;;;;;;;11.95;7.35;;;14.10;85.10;;;;;;5082446;28;20103;-75
2023/03/02 11:45:19;;;;;;;14.85;9.63;;;14.30;89.40;;;;;;5079592;28;20365;-74
2023/03/02 11:47:52;;;;;;;15.40;10.00;;;14.20;80.80;;;;;;5080916;28;20136;-75
2023/03/02 11:50:18;;;;;;;15.98;8.63;;;14.30;82.90;;;;;;5079702;28;20032;-76
2023/03/02 11:52:51;;;;;;;13.90;7.80;;;14.40;85.80;;;;;;5079533;28;20523;-75
2023/03/02 11:55:21;;;;;;;12.65;6.75;;;14.40;87.70;;;;;;5080184;28;20024;-75
2023/03/02 11:57:54;;;;;;;18.17;11.88;;;14.50;88.90;;;;;;5076649;28;20023;-75
2023/03/02 12:00:40;;;;;;;11.60;7.18;;;14.50;78.20;;;;;;5075832;28;20024;-77
2023/03/02 12:03:15;;;;;;;15.35;8.80;;;14.60;88.60;;;;;;5076319;28;20031;-76
2023/03/02 12:05:43;;;;;;;14.93;9.05;;;14.80;82.40;;;;;;5075689;28;20033;-76
2023/03/02 12:08:18;;;;;;;13.70;7.65;;;14.90;83.70;;;;;;5076118;28;20135;-75
2023/03/02 12:10:57;;;;;;;16.23;10.43;;;14.90;85.30;;;;;;5071835;28;20116;-75
2023/03/02 12:13:38;;;;;;;13.45;7.50;;;15.00;85.00;;;;;;5076157;28;20597;-75
2023/03/02 12:16:22;;;;;;;13.48;8.27;;;14.90;79.20;;;;;;5072764;28;20050;-76
2023/03/02 12:18:51;;;;;;;9.85;6.10;;;15.00;90.00;;;;;;5077967;28;20059;-76
2023/03/02 12:21:20;;;;;;;10.33;6.13;;;15.30;90.20;;;;;;5075798;28;20097;-76
2023/03/02 12:23:48;;;;;;;12.20;7.30;;;15.30;90.20;;;;;;5076811;28;20032;-74
2023/03/02 12:26:20;;;;;;;10.73;6.03;;;15.40;89.00;;;;;;5078489;28;20035;-75
2023/03/02 12:29:04;;;;;;;14.38;7.60;;;15.50;90.40;;;;;;5079082;28;20028;-74
2023/03/02 12:31:46;;;;;;;10.95;5.80;;;15.60;83.50;;;;;;5079345;28;20023;-76
2023/03/02 12:34:38;;;;;;;14.68;8.45;;;15.70;84.50;;;;;;5079191;28;20021;-75
2023/03/02 12:37:12;;;;;;;11.55;6.32;;;15.70;72.90;;;;;;5076291;28;20498;-76
2023/03/02 12:40:07;;;;;;;13.68;9.52;;;15.70;83.60;;;;;;5081775;28;20032;-76
2023/03/02 12:43:06;;;;;;;12.55;6.53;;;15.80;77.60;;;;;;5050490;28;20460;-76
2023/03/02 12:45:57;;;;;;;16.38;9.90;;;15.90;84.60;;;;;;5080088;28;20063;-77
2023/03/02 12:48:37;;;;;;;;;;;15.90;75.30;;;;;;5080829;28;20060;-76